Tuesday, February 20, 2018, 9:43 AM GMT
Back to Local

CWSD, Summerside Automatic Weather Reporting System

Location: , , Canada Lat: 46.433
Local Time: 9:43 AM GMT ( 9:43 GMT) Lon: -63.85
Time Zone: GMT Elev: 78 ft

Show me the last for .
Show Decoded

2018-02-20 09:00 METAR CWSD 200900Z AUTO 20009KT 01/01 RMK AO1 SOG 13 5007 SLP246 T00140006 =
2018-02-20 08:00 METAR CWSD 200800Z AUTO 20009KT 02/M00 RMK AO1 SOG 13 6011 SLP245 T00151001 =
2018-02-20 07:00 METAR CWSD 200700Z AUTO 19010KT 01/M00 RMK AO1 SOG 13 8012 SLP247 T00141003 =
2018-02-20 06:00 METAR CWSD 200600Z AUTO 18011KT 01/01 RMK AO1 SOG 13 8006 SLP253 T00120005 =
2018-02-20 05:00 METAR CWSD 200500Z AUTO 19011KT 01/M01 RMK AO1 SOG 13 6010 PK WND 20017/0417
                 SLP256 T00141006 =
2018-02-20 03:00 METAR CWSD 200300Z AUTO 20014KT 01/M01 RMK AO1 SOG 13 8015 PK WND 20019/0231
                 SLP259 T00131010 =
2018-02-20 02:00 METAR CWSD 200200Z AUTO 20013KT 01/M01 RMK AO1 SOG 13 8012 SLP267 T00111014 =
2018-02-20 01:00 METAR CWSD 200100Z AUTO 19011KT 01/M02 RMK AO1 SOG 13 8004 PK WND 20018/0006
                 SLP273 T00091016 =
2018-02-20 00:00 METAR CWSD 200000Z AUTO 20013KT 01/M02 RMK AO1 SOG 13 8003 PK WND 20017/2351
                 SLP275 T00121019 =
2018-02-19 23:00 METAR CWSD 192300Z AUTO 20010KT 01/M02 RMK AO1 SOG 13 5006 PK WND 20018/2201
                 SLP279 T00091024 =
2018-02-19 22:00 METAR CWSD 192200Z AUTO 20014KT 01/M03 RMK AO1 SOG 13 6016 PK WND 21021/2103
                 SLP277 T00101027 =
2018-02-19 21:00 METAR CWSD 192100Z AUTO 22019G25KT 02/M03 RMK AO1 SOG 13 6031 PK WND 21028/2020
                 SLP278 T00171026 =
2018-02-19 20:00 METAR CWSD 192000Z AUTO 21022G28KT 02/M03 RMK AO1 SOG 13 6039 PK WND 21030/1945
                 SLP285 T00151030 =
2018-02-19 19:00 METAR CWSD 191900Z AUTO 21017KT 01/M04 RMK AO1 SOG 13 8045 PK WND 21021/1858
                 SLP293 T00131040 =
2018-02-19 18:00 METAR CWSD 191800Z AUTO 18012KT M00/M05 RMK AO1 SOG 13 8039 SLP309 T10011051 =
2018-02-19 17:00 METAR CWSD 191700Z AUTO 18011KT M00/M05 RMK AO1 SOG 13 8029 SLP324 T10011053 =
2018-02-19 16:00 METAR CWSD 191600Z AUTO 18009KT M01/M06 RMK AO1 SOG 13 8012 SLP338 T10111059 =
2018-02-19 15:00 METAR CWSD 191500Z AUTO 21009KT M03/M07 RMK AO1 SOG 13 0005 SLP348 T10291073 =
2018-02-19 14:00 METAR CWSD 191400Z AUTO 21005KT M05/M07 RMK AO1 SOG 13 1019 SLP353 T10471068 =
2018-02-19 12:00 METAR CWSD 191200Z AUTO 22005KT M09/M10 RMK AO1 SOG 12 3022 SLP343 T10941102 =
2018-02-19 11:00 METAR CWSD 191100Z AUTO 23005KT M09/M10 RMK AO1 SOG 12 1022 SLP334 T10931099 =
2018-02-19 10:00 METAR CWSD 191000Z AUTO 22006KT M11/M12 RMK AO1 SOG 12 3021 SLP328 T11131124 =

Support USWX by starting your Amazon purchase here.